createdAt,value
2019-06-07T00:01:48.242Z,14.96
2019-06-07T00:04:16.674Z,14.91
2019-06-07T00:06:45.085Z,14.88
2019-06-07T00:09:15.349Z,14.91
2019-06-07T00:11:43.665Z,14.87
2019-06-07T00:14:14.691Z,14.83
2019-06-07T00:16:42.301Z,14.80
2019-06-07T00:19:12.070Z,14.80
2019-06-07T00:22:13.385Z,14.73
2019-06-07T00:24:30.153Z,14.67
2019-06-07T00:27:11.613Z,14.64
2019-06-07T00:29:40.515Z,14.62
2019-06-07T00:32:09.295Z,14.63
2019-06-07T00:34:40.324Z,14.56
2019-06-07T00:37:11.145Z,14.54
2019-06-07T00:39:38.981Z,14.50
2019-06-07T00:42:07.421Z,14.49
2019-06-07T00:44:35.866Z,14.49
2019-06-07T00:47:04.289Z,14.41
2019-06-07T00:49:41.058Z,14.42
2019-06-07T00:52:02.911Z,14.36
2019-06-07T00:54:34.120Z,14.34
2019-06-07T00:57:02.541Z,14.29
2019-06-07T00:59:30.981Z,14.29
2019-06-07T01:01:59.477Z,14.24
2019-06-07T01:04:27.937Z,14.26
2019-06-07T01:06:56.349Z,14.26
2019-06-07T01:09:25.520Z,14.26
2019-06-07T01:11:54.212Z,14.21
2019-06-07T01:14:25.271Z,14.19
2019-06-07T01:16:59.478Z,14.20
2019-06-07T01:19:26.467Z,14.15
2019-06-07T01:21:53.094Z,14.08
2019-06-07T01:24:24.424Z,14.06
2019-06-07T01:26:51.708Z,14.09
2019-06-07T01:29:22.247Z,14.04
2019-06-07T01:31:50.346Z,14.05
2019-06-07T01:34:18.839Z,14.07
2019-06-07T01:36:49.439Z,14.05
2019-06-07T01:39:18.799Z,14.04
2019-06-07T01:41:47.337Z,14.05
2019-06-07T01:44:17.751Z,14.03
2019-06-07T01:46:45.950Z,14.05
2019-06-07T01:49:33.703Z,14.04
2019-06-07T01:52:02.156Z,13.97
2019-06-07T01:57:00.775Z,13.99
2019-06-07T01:59:31.651Z,14.04
2019-06-07T02:01:59.383Z,14.05
2019-06-07T02:04:32.402Z,14.07
2019-06-07T02:06:57.997Z,14.07
2019-06-07T02:09:29.867Z,13.98
2019-06-07T02:11:56.616Z,13.99
2019-06-07T02:14:26.209Z,13.98
2019-06-07T02:16:55.233Z,13.92
2019-06-07T02:19:24.287Z,13.88
2019-06-07T02:21:52.876Z,13.83
2019-06-07T02:24:24.712Z,13.77
2019-06-07T02:26:51.479Z,13.80
2019-06-07T02:29:20.484Z,13.75
2019-06-07T02:31:49.052Z,13.77
2019-06-07T02:34:17.823Z,13.78
2019-06-07T02:36:46.250Z,13.77
2019-06-07T02:39:15.958Z,13.80
2019-06-07T02:41:44.738Z,13.76
2019-06-07T02:44:13.234Z,13.79
2019-06-07T02:46:49.081Z,13.83
2019-06-07T02:49:11.890Z,13.88
2019-06-07T02:51:41.930Z,13.84
2019-06-07T02:54:10.716Z,13.84
2019-06-07T02:56:56.850Z,13.83
2019-06-07T02:59:09.328Z,13.81
2019-06-07T03:01:41.387Z,13.81
2019-06-07T03:04:08.036Z,13.77
2019-06-07T03:06:40.481Z,13.80
2019-06-07T03:09:08.634Z,13.76
2019-06-07T03:11:38.713Z,13.73
2019-06-07T03:14:07.229Z,13.69
2019-06-07T03:16:41.591Z,13.71
2019-06-07T03:19:17.539Z,13.75
2019-06-07T03:21:46.348Z,13.70
2019-06-07T03:24:14.797Z,13.76
2019-06-07T03:27:31.848Z,13.71
2019-06-07T03:29:13.422Z,13.69
2019-06-07T03:31:47.518Z,13.71
2019-06-07T03:34:12.014Z,13.71
2019-06-07T03:36:40.453Z,13.67
2019-06-07T03:39:08.883Z,13.70
2019-06-07T03:41:49.955Z,13.69
2019-06-07T03:44:07.553Z,13.70
2019-06-07T03:46:39.012Z,13.71
2019-06-07T03:49:06.185Z,13.75
2019-06-07T03:51:39.060Z,13.74
2019-06-07T03:54:04.792Z,13.77
2019-06-07T03:56:35.078Z,13.80
2019-06-07T03:59:03.418Z,13.89
2019-06-07T04:01:32.346Z,13.98
2019-06-07T04:04:01.381Z,14.01
2019-06-07T04:06:32.490Z,14.08
2019-06-07T04:09:00.011Z,14.11
2019-06-07T04:11:28.457Z,14.12
2019-06-07T04:13:56.889Z,14.13
2019-06-07T04:16:25.329Z,14.22
2019-06-07T04:18:53.761Z,14.24
2019-06-07T04:21:22.213Z,14.33
2019-06-07T04:23:50.655Z,14.40
2019-06-07T04:26:19.101Z,14.42
2019-06-07T04:29:31.502Z,14.50
2019-06-07T04:31:17.705Z,14.51
2019-06-07T04:33:46.165Z,14.52
2019-06-07T04:36:14.601Z,14.53
2019-06-07T04:38:43.061Z,14.54
2019-06-07T04:41:31.062Z,14.56
2019-06-07T04:44:00.494Z,14.57
2019-06-07T04:46:29.077Z,14.58
2019-06-07T04:48:57.518Z,14.62
2019-06-07T04:51:26.314Z,14.72
2019-06-07T04:53:54.772Z,14.75
2019-06-07T04:56:23.208Z,14.82
2019-06-07T04:58:51.657Z,14.86
2019-06-07T05:01:27.235Z,14.92
2019-06-07T05:03:50.261Z,14.97
2019-06-07T05:06:18.764Z,15.11
2019-06-07T05:08:47.202Z,15.19
2019-06-07T05:11:15.650Z,15.19
2019-06-07T05:13:44.264Z,15.16
2019-06-07T05:16:35.218Z,14.99
2019-06-07T05:19:02.405Z,14.96
2019-06-07T05:21:49.119Z,14.92
2019-06-07T05:24:08.423Z,14.86
2019-06-07T05:26:33.035Z,14.87
2019-06-07T05:29:01.356Z,14.84
2019-06-07T05:31:31.069Z,14.83
2019-06-07T05:33:59.973Z,14.75
2019-06-07T05:36:28.433Z,14.78
2019-06-07T05:38:56.895Z,14.91
2019-06-07T05:41:25.334Z,14.98
2019-06-07T05:44:11.531Z,15.07
2019-06-07T05:46:25.226Z,15.12
2019-06-07T05:48:53.668Z,15.22
2019-06-07T05:51:22.120Z,15.33
2019-06-07T05:53:50.574Z,15.51
2019-06-07T05:56:19.085Z,15.72
2019-06-07T05:58:47.538Z,15.89
2019-06-07T06:03:48.441Z,16.04
2019-06-07T06:06:17.163Z,16.24
2019-06-07T06:08:47.912Z,16.37
2019-06-07T06:11:15.825Z,16.46
2019-06-07T06:14:05.352Z,16.62
2019-06-07T06:16:14.439Z,16.67
2019-06-07T06:18:45.783Z,16.72
2019-06-07T06:21:19.110Z,16.79
2019-06-07T06:23:45.865Z,16.84
2019-06-07T06:26:13.352Z,16.84
2019-06-07T06:28:42.633Z,16.85
2019-06-07T06:31:11.743Z,16.95
2019-06-07T06:33:42.932Z,16.72
2019-06-07T06:36:10.621Z,16.82
2019-06-07T06:38:43.746Z,16.88
2019-06-07T06:41:16.121Z,17.06
2019-06-07T06:43:46.778Z,17.14
2019-06-07T06:46:12.459Z,17.19
2019-06-07T06:48:45.453Z,17.34
2019-06-07T06:51:11.187Z,17.48
2019-06-07T06:53:40.424Z,17.52
2019-06-07T06:56:09.764Z,17.64
2019-06-07T06:59:21.407Z,17.76
2019-06-07T07:01:08.369Z,17.70
2019-06-07T07:03:57.171Z,17.70
2019-06-07T07:06:25.060Z,17.76
2019-06-07T07:08:37.087Z,17.74
2019-06-07T07:11:05.501Z,17.95
2019-06-07T07:13:33.937Z,17.87
2019-06-07T07:16:02.364Z,17.89
2019-06-07T07:18:30.783Z,17.76
2019-06-07T07:20:59.197Z,17.69
2019-06-07T07:23:27.644Z,17.56
2019-06-07T07:25:59.239Z,17.64
2019-06-07T07:28:26.301Z,17.67
2019-06-07T07:30:56.933Z,17.77
2019-06-07T07:33:25.073Z,17.81
2019-06-07T07:36:15.280Z,17.93
2019-06-07T07:38:23.656Z,17.67
2019-06-07T07:41:15.252Z,17.69
2019-06-07T07:43:22.277Z,17.85
2019-06-07T07:45:57.776Z,18.02
2019-06-07T07:48:20.943Z,17.82
2019-06-07T07:50:53.677Z,17.77
2019-06-07T07:53:19.530Z,17.85
2019-06-07T07:55:51.536Z,18.02
2019-06-07T07:58:18.440Z,18.14
2019-06-07T08:00:55.032Z,18.26
2019-06-07T08:03:17.024Z,18.50
2019-06-07T08:05:46.975Z,18.50
2019-06-07T08:08:15.893Z,18.36
2019-06-07T08:10:44.385Z,18.55
2019-06-07T08:13:24.907Z,18.68
2019-06-07T08:15:43.018Z,18.80
2019-06-07T08:18:11.475Z,18.83
2019-06-07T08:20:39.974Z,19.27
2019-06-07T08:23:08.479Z,19.54
2019-06-07T08:25:37.290Z,19.59
2019-06-07T08:28:05.720Z,19.57
2019-06-07T08:30:50.176Z,19.24
2019-06-07T08:33:26.732Z,19.20
2019-06-07T08:38:29.741Z,18.86
2019-06-07T08:41:01.132Z,18.88
2019-06-07T08:43:24.553Z,18.85
2019-06-07T08:45:59.437Z,18.79
2019-06-07T08:48:27.733Z,18.95
2019-06-07T08:50:57.067Z,18.67
2019-06-07T08:53:23.521Z,18.57
2019-06-07T08:55:58.277Z,18.64
2019-06-07T08:58:22.177Z,18.57
2019-06-07T09:00:51.650Z,18.67
2019-06-07T09:03:20.746Z,18.94
2019-06-07T09:05:49.153Z,19.11
2019-06-07T09:08:29.807Z,19.04
2019-06-07T09:10:47.765Z,18.98
2019-06-07T09:13:16.233Z,19.04
2019-06-07T09:15:45.756Z,19.01
2019-06-07T09:20:45.924Z,19.00
2019-06-07T09:23:17.257Z,18.87
2019-06-07T09:25:56.505Z,18.93
2019-06-07T09:28:19.851Z,18.96
2019-06-07T09:30:45.360Z,19.01
2019-06-07T09:33:13.968Z,19.15
2019-06-07T09:35:42.484Z,18.99
2019-06-07T09:38:23.232Z,18.95
2019-06-07T09:40:41.064Z,19.10
2019-06-07T09:45:39.650Z,19.25
2019-06-07T09:48:13.360Z,19.32
2019-06-07T09:50:38.208Z,19.36
2019-06-07T09:53:19.692Z,19.18
2019-06-07T09:55:36.768Z,18.95
2019-06-07T09:58:47.831Z,18.95
2019-06-07T10:00:41.252Z,19.17
2019-06-07T10:03:17.753Z,19.27
2019-06-07T10:05:35.841Z,19.28
2019-06-07T10:08:37.988Z,19.22
2019-06-07T10:13:04.126Z,19.51
2019-06-07T10:15:32.864Z,19.55
2019-06-07T10:18:01.297Z,19.70
2019-06-07T10:20:29.726Z,19.65
2019-06-07T10:22:59.431Z,19.53
2019-06-07T10:25:28.071Z,19.84
2019-06-07T10:27:56.505Z,19.75
2019-06-07T10:30:24.932Z,19.94
2019-06-07T10:32:53.373Z,20.03
2019-06-07T10:35:21.813Z,20.35
2019-06-07T10:37:50.278Z,20.50
2019-06-07T10:40:18.744Z,20.42
2019-06-07T10:42:47.213Z,20.30
2019-06-07T10:45:15.681Z,20.59
2019-06-07T10:47:44.117Z,20.94
2019-06-07T10:50:31.854Z,21.22
2019-06-07T10:53:00.608Z,21.04
2019-06-07T10:55:32.052Z,21.09
2019-06-07T10:58:00.509Z,21.25
2019-06-07T11:00:29.608Z,21.25
2019-06-07T11:02:58.028Z,21.44
2019-06-07T11:05:26.476Z,21.64
2019-06-07T11:07:54.912Z,21.62
2019-06-07T11:10:24.372Z,21.58
2019-06-07T11:12:52.829Z,21.73
2019-06-07T11:15:22.420Z,21.98
2019-06-07T11:17:50.854Z,22.21
2019-06-07T11:20:19.268Z,22.43
2019-06-07T11:22:47.697Z,22.57
2019-06-07T11:25:16.141Z,22.56
2019-06-07T11:27:44.557Z,22.60
2019-06-07T11:30:14.536Z,22.63
2019-06-07T11:32:43.287Z,22.65
2019-06-07T11:35:13.549Z,22.84
2019-06-07T11:37:42.004Z,22.68
2019-06-07T11:40:27.757Z,22.81
2019-06-07T11:42:40.667Z,22.86
2019-06-07T11:45:10.863Z,22.88
2019-06-07T11:47:40.421Z,22.64
2019-06-07T11:50:09.427Z,22.83
2019-06-07T11:52:38.731Z,22.76
2019-06-07T11:55:09.015Z,22.71
2019-06-07T11:57:37.811Z,22.79
2019-06-07T12:00:25.594Z,22.87
2019-06-07T12:02:54.088Z,23.12
2019-06-07T12:05:22.504Z,23.35
2019-06-07T12:08:10.253Z,23.49
2019-06-07T12:10:42.599Z,23.60
2019-06-07T12:13:08.832Z,23.44
2019-06-07T12:15:37.252Z,23.53
2019-06-07T12:18:05.685Z,23.53
2019-06-07T12:20:34.086Z,23.64
2019-06-07T12:23:03.792Z,23.47
2019-06-07T12:25:32.217Z,23.45
2019-06-07T12:28:00.629Z,23.55
2019-06-07T12:30:29.049Z,23.52
2019-06-07T12:32:57.471Z,23.55
2019-06-07T12:35:25.920Z,23.81
2019-06-07T12:37:54.385Z,23.88
2019-06-07T12:40:30.589Z,24.20
2019-06-07T12:42:52.974Z,24.41
2019-06-07T12:45:40.179Z,24.54
2019-06-07T12:48:10.914Z,24.47
2019-06-07T12:50:42.979Z,24.60
2019-06-07T12:53:09.569Z,24.46
2019-06-07T12:55:37.985Z,24.09
2019-06-07T12:58:33.688Z,24.12
2019-06-07T13:01:15.956Z,23.84
2019-06-07T13:03:44.578Z,23.61
2019-06-07T13:06:13.065Z,23.35
2019-06-07T13:08:41.561Z,23.28
2019-06-07T13:11:16.017Z,23.10
2019-06-07T13:13:40.149Z,22.99
2019-06-07T13:16:08.616Z,23.01
2019-06-07T13:18:37.081Z,22.82
2019-06-07T13:21:05.504Z,22.82
2019-06-07T13:23:33.924Z,22.76
2019-06-07T13:26:02.479Z,22.64
2019-06-07T13:28:31.578Z,22.64
2019-06-07T13:31:00.277Z,22.56
2019-06-07T13:33:35.288Z,22.43
2019-06-07T13:35:58.827Z,22.44
2019-06-07T13:38:28.850Z,22.39
2019-06-07T13:40:57.628Z,22.53
2019-06-07T13:43:26.231Z,22.62
2019-06-07T13:45:54.664Z,22.53
2019-06-07T13:48:23.426Z,22.44
2019-06-07T13:50:52.229Z,22.48
2019-06-07T13:53:20.754Z,22.32
2019-06-07T13:55:49.160Z,22.24
2019-06-07T13:58:36.901Z,22.24
2019-06-07T14:01:05.319Z,22.24
2019-06-07T14:03:53.062Z,22.33
2019-06-07T14:06:21.463Z,22.16
2019-06-07T14:08:50.254Z,22.29
2019-06-07T14:11:19.388Z,22.26
2019-06-07T14:13:48.054Z,22.19
2019-06-07T14:16:16.470Z,22.07
2019-06-07T14:18:44.897Z,21.99
2019-06-07T14:21:13.322Z,21.70
2019-06-07T14:23:48.661Z,21.48
2019-06-07T14:26:11.893Z,21.44
2019-06-07T14:28:40.364Z,21.17
2019-06-07T14:31:08.777Z,21.11
2019-06-07T14:33:37.182Z,20.93
2019-06-07T14:36:05.625Z,20.66
2019-06-07T14:38:37.513Z,20.48
2019-06-07T14:41:04.171Z,20.55
2019-06-07T14:43:34.072Z,20.39
2019-06-07T14:46:02.691Z,20.30
2019-06-07T14:48:32.642Z,20.20
2019-06-07T14:51:01.324Z,20.20
2019-06-07T14:53:30.887Z,20.02
2019-06-07T14:55:59.761Z,19.68
2019-06-07T14:58:29.356Z,19.62
2019-06-07T15:00:57.984Z,19.26
2019-06-07T15:03:26.456Z,19.38
2019-06-07T15:05:54.900Z,18.88
2019-06-07T15:08:23.314Z,18.92
2019-06-07T15:10:51.744Z,18.85
2019-06-07T15:13:20.176Z,18.69
2019-06-07T15:15:48.590Z,18.56
2019-06-07T15:18:17.005Z,18.39
2019-06-07T15:20:45.415Z,18.62
2019-06-07T15:23:13.858Z,18.47
2019-06-07T15:25:42.310Z,18.65
2019-06-07T15:28:10.753Z,18.48
2019-06-07T15:30:39.172Z,18.43
2019-06-07T15:33:07.593Z,18.19
2019-06-07T15:35:37.780Z,18.10
2019-06-07T15:38:07.471Z,17.98
2019-06-07T15:40:37.386Z,18.04
2019-06-07T15:43:05.956Z,18.11
2019-06-07T15:45:35.481Z,18.21
2019-06-07T15:48:04.112Z,18.21
2019-06-07T15:50:32.520Z,18.20
2019-06-07T15:53:00.931Z,18.09
2019-06-07T15:55:30.679Z,17.87
2019-06-07T15:57:59.507Z,17.97
2019-06-07T16:00:27.990Z,18.09
2019-06-07T16:02:56.395Z,18.09
2019-06-07T16:05:24.824Z,17.92
2019-06-07T16:07:53.267Z,17.72
2019-06-07T16:10:21.705Z,17.79
2019-06-07T16:13:00.082Z,17.88
2019-06-07T16:15:20.708Z,17.91
2019-06-07T16:17:49.118Z,17.90
2019-06-07T16:20:17.626Z,17.97
2019-06-07T16:22:46.044Z,18.09
2019-06-07T16:25:14.933Z,17.90
2019-06-07T16:27:44.698Z,17.87
2019-06-07T16:30:32.650Z,17.83
2019-06-07T16:33:02.351Z,17.61
2019-06-07T16:35:30.836Z,17.56
2019-06-07T16:37:59.251Z,17.47
2019-06-07T16:40:27.677Z,17.40
2019-06-07T16:42:56.122Z,17.40
2019-06-07T16:45:24.573Z,17.49
2019-06-07T16:47:53.037Z,17.49
2019-06-07T16:50:21.452Z,17.45
2019-06-07T16:52:49.874Z,17.53
2019-06-07T16:55:18.664Z,17.44
2019-06-07T16:57:47.174Z,17.32
2019-06-07T17:00:15.580Z,17.23
2019-06-07T17:02:44.950Z,17.19
2019-06-07T17:05:14.092Z,17.14
2019-06-07T17:07:43.268Z,17.08
2019-06-07T17:10:13.435Z,17.22
2019-06-07T17:12:42.809Z,17.43
2019-06-07T17:15:11.763Z,17.68
2019-06-07T17:17:40.973Z,17.69
2019-06-07T17:20:09.756Z,17.64
2019-06-07T17:22:39.055Z,17.56
2019-06-07T17:25:07.665Z,17.63
2019-06-07T17:27:36.452Z,17.47
2019-06-07T17:30:06.075Z,17.46
2019-06-07T17:32:47.623Z,17.28
2019-06-07T17:35:04.720Z,17.31
2019-06-07T17:37:33.202Z,17.20
2019-06-07T17:40:01.665Z,17.09
2019-06-07T17:42:30.073Z,17.15
2019-06-07T17:44:58.494Z,16.95
2019-06-07T17:47:26.914Z,16.96
2019-06-07T17:49:55.329Z,16.92
2019-06-07T17:52:24.704Z,16.82
2019-06-07T17:54:53.148Z,16.81
2019-06-07T17:57:21.566Z,16.73
2019-06-07T17:59:50.637Z,16.51
2019-06-07T18:02:19.120Z,16.43
2019-06-07T18:04:47.552Z,16.50
2019-06-07T18:07:15.998Z,16.66
2019-06-07T18:09:45.381Z,16.77
2019-06-07T18:12:13.839Z,16.82
2019-06-07T18:14:42.349Z,16.96
2019-06-07T18:17:10.794Z,17.00
2019-06-07T18:19:39.244Z,17.14
2019-06-07T18:22:07.678Z,17.09
2019-06-07T18:24:36.093Z,17.13
2019-06-07T18:27:07.088Z,17.02
2019-06-07T18:29:34.657Z,16.87
2019-06-07T18:32:03.100Z,16.86
2019-06-07T18:34:31.508Z,16.86
2019-06-07T18:36:59.946Z,16.82
2019-06-07T18:39:28.357Z,16.70
2019-06-07T18:41:56.802Z,16.71
2019-06-07T18:44:25.221Z,16.78
2019-06-07T18:46:54.390Z,16.80
2019-06-07T18:49:23.123Z,16.87
2019-06-07T18:52:09.372Z,16.84
2019-06-07T18:54:37.807Z,16.70
2019-06-07T18:57:06.520Z,16.60
2019-06-07T18:59:34.963Z,16.50
2019-06-07T19:02:03.432Z,16.51
2019-06-07T19:04:31.925Z,16.50
2019-06-07T19:07:00.392Z,16.54
2019-06-07T19:09:29.189Z,16.61
2019-06-07T19:11:57.686Z,16.54
2019-06-07T19:14:36.742Z,16.48
2019-06-07T19:17:00.038Z,16.48
2019-06-07T19:19:28.452Z,16.44
2019-06-07T19:21:58.286Z,16.48
2019-06-07T19:24:26.760Z,16.49
2019-06-07T19:26:56.596Z,16.45
2019-06-07T19:29:25.297Z,16.49
2019-06-07T19:31:54.884Z,16.47
2019-06-07T19:34:23.480Z,16.49
2019-06-07T19:36:51.913Z,16.43
2019-06-07T19:39:20.339Z,16.29
2019-06-07T19:41:48.757Z,16.25
2019-06-07T19:44:17.549Z,16.29
2019-06-07T19:46:47.641Z,16.27
2019-06-07T19:49:16.132Z,16.21
2019-06-07T19:51:44.586Z,16.16
2019-06-07T19:54:13.406Z,16.19
2019-06-07T19:56:41.843Z,16.12
2019-06-07T19:59:10.312Z,16.07
2019-06-07T20:01:40.388Z,16.14
2019-06-07T20:04:28.174Z,16.02
2019-06-07T20:06:58.024Z,16.24
2019-06-07T20:09:26.661Z,16.33
2019-06-07T20:11:56.343Z,16.18
2019-06-07T20:14:24.979Z,16.29
2019-06-07T20:16:55.181Z,16.26
2019-06-07T20:19:24.059Z,16.28
2019-06-07T20:21:52.523Z,16.25
2019-06-07T20:24:26.987Z,16.32
2019-06-07T20:27:00.282Z,16.26
2019-06-07T20:29:30.210Z,16.22
2019-06-07T20:31:58.882Z,16.12
2019-06-07T20:34:27.329Z,16.10
2019-06-07T20:36:56.054Z,16.05
2019-06-07T20:39:24.490Z,16.20
2019-06-07T20:41:52.943Z,16.19
2019-06-07T20:44:21.453Z,15.98
2019-06-07T20:46:49.897Z,15.98
2019-06-07T20:49:37.675Z,15.99
2019-06-07T20:52:06.728Z,16.04
2019-06-07T20:54:35.290Z,15.99
2019-06-07T20:57:04.773Z,15.92
2019-06-07T20:59:33.359Z,15.89
2019-06-07T21:02:03.012Z,15.91
2019-06-07T21:04:31.551Z,16.02
2019-06-07T21:07:01.308Z,15.99
2019-06-07T21:09:29.906Z,16.04
2019-06-07T21:11:59.757Z,16.04
2019-06-07T21:14:28.338Z,16.08
2019-06-07T21:16:56.781Z,16.13
2019-06-07T21:19:25.213Z,16.13
2019-06-07T21:21:53.639Z,16.12
2019-06-07T21:24:22.112Z,16.21
2019-06-07T21:26:53.233Z,16.24
2019-06-07T21:29:20.668Z,16.24
2019-06-07T21:31:49.109Z,16.39
2019-06-07T21:34:17.506Z,16.46
2019-06-07T21:36:46.333Z,16.41
2019-06-07T21:39:14.742Z,16.43
2019-06-07T21:41:43.194Z,16.54
2019-06-07T21:44:12.399Z,16.52
2019-06-07T21:46:40.927Z,16.58
2019-06-07T21:49:10.562Z,16.55
2019-06-07T21:51:39.023Z,16.36
2019-06-07T21:54:11.072Z,16.33
2019-06-07T21:56:38.228Z,16.17
2019-06-07T21:59:07.086Z,15.97
2019-06-07T22:01:35.646Z,15.62
2019-06-07T22:04:05.427Z,15.43
2019-06-07T22:06:34.024Z,15.44
2019-06-07T22:09:03.798Z,15.25
2019-06-07T22:11:32.455Z,15.15
2019-06-07T22:14:01.205Z,15.17
2019-06-07T22:16:29.729Z,15.24
2019-06-07T22:18:58.407Z,15.25
2019-06-07T22:21:27.034Z,15.28
2019-06-07T22:23:55.479Z,15.28
2019-06-07T22:26:43.229Z,15.31
2019-06-07T22:29:12.381Z,15.32
2019-06-07T22:31:40.941Z,15.31
2019-06-07T22:34:10.509Z,15.29
2019-06-07T22:36:39.168Z,15.30
2019-06-07T22:39:07.661Z,15.33
2019-06-07T22:41:36.109Z,15.32
2019-06-07T22:44:04.516Z,15.36
2019-06-07T22:46:37.364Z,15.29
2019-06-07T22:49:03.210Z,15.32
2019-06-07T22:51:31.649Z,15.30
2019-06-07T22:54:00.075Z,15.33
2019-06-07T22:56:36.935Z,15.29
2019-06-07T22:59:05.368Z,15.26
2019-06-07T23:01:34.083Z,15.21
2019-06-07T23:04:02.513Z,15.23
2019-06-07T23:06:30.921Z,15.21
2019-06-07T23:08:59.365Z,15.21
2019-06-07T23:11:27.781Z,15.24
2019-06-07T23:13:56.334Z,15.23
2019-06-07T23:16:24.770Z,15.21
2019-06-07T23:18:53.234Z,15.21
2019-06-07T23:21:21.660Z,15.14
2019-06-07T23:23:50.093Z,15.23
2019-06-07T23:26:18.484Z,15.26
2019-06-07T23:28:46.920Z,15.26
2019-06-07T23:31:16.485Z,15.29
2019-06-07T23:33:45.163Z,15.26
2019-06-07T23:36:14.976Z,15.19
2019-06-07T23:38:43.500Z,14.99
2019-06-07T23:41:13.168Z,14.84
2019-06-07T23:43:41.713Z,14.66
2019-06-07T23:46:11.419Z,14.56
2019-06-07T23:48:40.015Z,14.54
2019-06-07T23:51:08.420Z,14.44
2019-06-07T23:53:37.200Z,14.36
2019-06-07T23:56:05.640Z,14.32
2019-06-07T23:58:34.068Z,14.23
